sensor_id;sensor_type;location;lat;lon;timestamp;P1;durP1;ratioP1;P2;durP2;ratioP2
7057;SDS011;3570;43.080;25.628;2022-10-31T00:01:37;11.90;;;6.87;;
7057;SDS011;3570;43.080;25.628;2022-10-31T00:04:22;12.43;;;6.57;;
7057;SDS011;3570;43.080;25.628;2022-10-31T00:07:06;12.07;;;6.63;;
7057;SDS011;3570;43.080;25.628;2022-10-31T00:09:50;13.53;;;7.30;;
7057;SDS011;3570;43.080;25.628;2022-10-31T00:12:34;14.00;;;6.90;;
7057;SDS011;3570;43.080;25.628;2022-10-31T00:15:18;11.23;;;6.07;;
7057;SDS011;3570;43.080;25.628;2022-10-31T00:18:02;10.80;;;6.57;;
7057;SDS011;3570;43.080;25.628;2022-10-31T00:20:47;10.43;;;6.27;;
7057;SDS011;3570;43.080;25.628;2022-10-31T00:23:31;12.67;;;7.23;;
7057;SDS011;3570;43.080;25.628;2022-10-31T00:26:15;11.63;;;7.43;;
7057;SDS011;3570;43.080;25.628;2022-10-31T00:29:00;9.90;;;6.50;;
7057;SDS011;3570;43.080;25.628;2022-10-31T00:31:44;12.37;;;6.70;;
7057;SDS011;3570;43.080;25.628;2022-10-31T00:34:28;12.73;;;7.00;;
7057;SDS011;3570;43.080;25.628;2022-10-31T00:37:12;10.53;;;6.77;;
7057;SDS011;3570;43.080;25.628;2022-10-31T00:39:56;10.60;;;6.57;;
7057;SDS011;3570;43.080;25.628;2022-10-31T00:42:40;12.60;;;6.53;;
7057;SDS011;3570;43.080;25.628;2022-10-31T00:45:25;10.53;;;6.00;;
7057;SDS011;3570;43.080;25.628;2022-10-31T00:48:09;10.27;;;6.53;;
7057;SDS011;3570;43.080;25.628;2022-10-31T00:50:54;13.80;;;6.90;;
7057;SDS011;3570;43.080;25.628;2022-10-31T00:53:38;9.83;;;6.10;;
7057;SDS011;3570;43.080;25.628;2022-10-31T00:56:22;13.73;;;6.57;;
7057;SDS011;3570;43.080;25.628;2022-10-31T00:59:06;11.80;;;6.63;;
7057;SDS011;3570;43.080;25.628;2022-10-31T01:01:50;12.57;;;6.53;;
7057;SDS011;3570;43.080;25.628;2022-10-31T01:04:34;11.17;;;6.67;;
7057;SDS011;3570;43.080;25.628;2022-10-31T01:07:18;12.93;;;6.73;;
7057;SDS011;3570;43.080;25.628;2022-10-31T01:10:02;10.53;;;6.23;;
7057;SDS011;3570;43.080;25.628;2022-10-31T01:12:48;8.83;;;5.60;;
7057;SDS011;3570;43.080;25.628;2022-10-31T01:15:33;11.70;;;6.13;;
7057;SDS011;3570;43.080;25.628;2022-10-31T01:18:17;17.50;;;7.80;;
7057;SDS011;3570;43.080;25.628;2022-10-31T01:21:03;11.73;;;6.50;;
7057;SDS011;3570;43.080;25.628;2022-10-31T01:24:20;13.57;;;6.87;;
7057;SDS011;3570;43.080;25.628;2022-10-31T01:27:04;15.80;;;7.53;;
7057;SDS011;3570;43.080;25.628;2022-10-31T01:29:48;12.23;;;6.83;;
7057;SDS011;3570;43.080;25.628;2022-10-31T01:32:32;14.03;;;7.03;;
7057;SDS011;3570;43.080;25.628;2022-10-31T01:35:16;14.03;;;6.80;;
7057;SDS011;3570;43.080;25.628;2022-10-31T01:37:59;14.70;;;7.50;;
7057;SDS011;3570;43.080;25.628;2022-10-31T01:40:43;8.47;;;6.33;;
7057;SDS011;3570;43.080;25.628;2022-10-31T01:43:44;12.83;;;7.53;;
7057;SDS011;3570;43.080;25.628;2022-10-31T01:46:34;11.13;;;7.43;;
7057;SDS011;3570;43.080;25.628;2022-10-31T01:49:24;12.40;;;7.70;;
7057;SDS011;3570;43.080;25.628;2022-10-31T01:52:20;12.73;;;8.10;;
7057;SDS011;3570;43.080;25.628;2022-10-31T01:55:37;14.37;;;8.20;;
7057;SDS011;3570;43.080;25.628;2022-10-31T01:58:25;13.07;;;7.83;;
7057;SDS011;3570;43.080;25.628;2022-10-31T02:01:12;16.23;;;7.43;;
7057;SDS011;3570;43.080;25.628;2022-10-31T02:03:58;12.13;;;7.50;;
7057;SDS011;3570;43.080;25.628;2022-10-31T02:06:47;10.07;;;6.73;;
7057;SDS011;3570;43.080;25.628;2022-10-31T02:09:42;10.27;;;6.30;;
7057;SDS011;3570;43.080;25.628;2022-10-31T02:12:29;9.87;;;6.57;;
7057;SDS011;3570;43.080;25.628;2022-10-31T02:15:15;10.83;;;7.03;;
7057;SDS011;3570;43.080;25.628;2022-10-31T02:17:59;11.57;;;5.70;;
7057;SDS011;3570;43.080;25.628;2022-10-31T02:27:07;7.70;;;4.77;;
7057;SDS011;3570;43.080;25.628;2022-10-31T02:33:11;9.73;;;5.87;;
7057;SDS011;3570;43.080;25.628;2022-10-31T02:39:25;6.83;;;4.57;;
7057;SDS011;3570;43.080;25.628;2022-10-31T02:42:17;9.67;;;5.90;;
7057;SDS011;3570;43.080;25.628;2022-10-31T02:45:14;9.30;;;5.47;;
7057;SDS011;3570;43.080;25.628;2022-10-31T02:48:10;12.90;;;6.33;;
7057;SDS011;3570;43.080;25.628;2022-10-31T02:50:59;10.17;;;5.40;;
7057;SDS011;3570;43.080;25.628;2022-10-31T02:53:45;8.07;;;5.13;;
7057;SDS011;3570;43.080;25.628;2022-10-31T02:56:29;12.37;;;5.47;;
7057;SDS011;3570;43.080;25.628;2022-10-31T02:59:12;8.63;;;5.37;;
7057;SDS011;3570;43.080;25.628;2022-10-31T03:08:08;7.67;;;4.90;;
7057;SDS011;3570;43.080;25.628;2022-10-31T03:11:07;7.87;;;4.73;;
7057;SDS011;3570;43.080;25.628;2022-10-31T03:14:17;8.83;;;4.80;;
7057;SDS011;3570;43.080;25.628;2022-10-31T03:17:06;6.80;;;4.77;;
7057;SDS011;3570;43.080;25.628;2022-10-31T03:19:54;11.70;;;5.20;;
7057;SDS011;3570;43.080;25.628;2022-10-31T03:22:42;8.57;;;5.17;;
7057;SDS011;3570;43.080;25.628;2022-10-31T03:25:28;12.13;;;4.90;;
7057;SDS011;3570;43.080;25.628;2022-10-31T03:28:15;7.30;;;4.60;;
7057;SDS011;3570;43.080;25.628;2022-10-31T03:31:02;12.07;;;5.53;;
7057;SDS011;3570;43.080;25.628;2022-10-31T03:33:50;8.83;;;5.30;;
7057;SDS011;3570;43.080;25.628;2022-10-31T03:36:35;6.90;;;4.37;;
7057;SDS011;3570;43.080;25.628;2022-10-31T03:39:22;11.57;;;5.00;;
7057;SDS011;3570;43.080;25.628;2022-10-31T03:42:09;6.73;;;4.63;;
7057;SDS011;3570;43.080;25.628;2022-10-31T03:44:58;8.40;;;4.70;;
7057;SDS011;3570;43.080;25.628;2022-10-31T03:47:44;9.33;;;5.13;;
7057;SDS011;3570;43.080;25.628;2022-10-31T03:50:39;10.17;;;5.50;;
7057;SDS011;3570;43.080;25.628;2022-10-31T03:53:57;7.53;;;5.03;;
7057;SDS011;3570;43.080;25.628;2022-10-31T03:56:48;10.03;;;4.90;;
7057;SDS011;3570;43.080;25.628;2022-10-31T03:59:36;10.50;;;4.90;;
7057;SDS011;3570;43.080;25.628;2022-10-31T04:02:28;10.63;;;5.20;;
7057;SDS011;3570;43.080;25.628;2022-10-31T04:05:15;9.57;;;5.03;;
7057;SDS011;3570;43.080;25.628;2022-10-31T04:08:02;8.03;;;5.00;;
7057;SDS011;3570;43.080;25.628;2022-10-31T04:10:50;7.43;;;5.00;;
7057;SDS011;3570;43.080;25.628;2022-10-31T04:13:36;7.07;;;4.80;;
7057;SDS011;3570;43.080;25.628;2022-10-31T04:16:22;9.43;;;5.27;;
7057;SDS011;3570;43.080;25.628;2022-10-31T04:19:08;11.13;;;5.40;;
7057;SDS011;3570;43.080;25.628;2022-10-31T04:21:53;11.43;;;5.33;;
7057;SDS011;3570;43.080;25.628;2022-10-31T04:24:38;10.20;;;5.93;;
7057;SDS011;3570;43.080;25.628;2022-10-31T04:27:23;13.17;;;4.77;;
7057;SDS011;3570;43.080;25.628;2022-10-31T04:30:07;11.90;;;5.60;;
7057;SDS011;3570;43.080;25.628;2022-10-31T04:32:52;7.10;;;4.73;;
7057;SDS011;3570;43.080;25.628;2022-10-31T04:35:36;6.70;;;4.70;;
7057;SDS011;3570;43.080;25.628;2022-10-31T04:38:19;8.70;;;5.00;;
7057;SDS011;3570;43.080;25.628;2022-10-31T04:41:03;8.93;;;4.60;;
7057;SDS011;3570;43.080;25.628;2022-10-31T04:43:48;11.50;;;5.40;;
7057;SDS011;3570;43.080;25.628;2022-10-31T04:46:32;7.90;;;4.80;;
7057;SDS011;3570;43.080;25.628;2022-10-31T04:49:16;11.40;;;5.63;;
7057;SDS011;3570;43.080;25.628;2022-10-31T04:52:00;11.37;;;5.57;;
7057;SDS011;3570;43.080;25.628;2022-10-31T04:54:43;10.50;;;5.10;;
7057;SDS011;3570;43.080;25.628;2022-10-31T04:57:27;10.07;;;5.83;;
7057;SDS011;3570;43.080;25.628;2022-10-31T05:00:11;15.67;;;6.43;;
7057;SDS011;3570;43.080;25.628;2022-10-31T05:02:57;12.23;;;6.10;;
7057;SDS011;3570;43.080;25.628;2022-10-31T05:05:41;9.67;;;5.57;;
7057;SDS011;3570;43.080;25.628;2022-10-31T05:08:26;10.40;;;5.73;;
7057;SDS011;3570;43.080;25.628;2022-10-31T05:11:09;11.87;;;5.70;;
7057;SDS011;3570;43.080;25.628;2022-10-31T05:13:54;10.60;;;6.57;;
7057;SDS011;3570;43.080;25.628;2022-10-31T05:16:38;10.27;;;5.90;;
7057;SDS011;3570;43.080;25.628;2022-10-31T05:19:22;13.73;;;5.90;;
7057;SDS011;3570;43.080;25.628;2022-10-31T05:22:06;15.53;;;7.67;;
7057;SDS011;3570;43.080;25.628;2022-10-31T05:24:50;13.00;;;7.43;;
7057;SDS011;3570;43.080;25.628;2022-10-31T05:27:34;14.77;;;6.83;;
7057;SDS011;3570;43.080;25.628;2022-10-31T05:30:20;20.43;;;7.80;;
7057;SDS011;3570;43.080;25.628;2022-10-31T05:33:06;15.33;;;7.93;;
7057;SDS011;3570;43.080;25.628;2022-10-31T05:35:50;20.87;;;7.73;;
7057;SDS011;3570;43.080;25.628;2022-10-31T05:38:34;12.97;;;7.00;;
7057;SDS011;3570;43.080;25.628;2022-10-31T05:41:17;15.93;;;7.17;;
7057;SDS011;3570;43.080;25.628;2022-10-31T05:44:02;13.10;;;7.53;;
7057;SDS011;3570;43.080;25.628;2022-10-31T05:46:46;18.77;;;7.60;;
7057;SDS011;3570;43.080;25.628;2022-10-31T05:49:30;13.87;;;6.50;;
7057;SDS011;3570;43.080;25.628;2022-10-31T05:52:14;15.67;;;8.03;;
7057;SDS011;3570;43.080;25.628;2022-10-31T05:54:59;14.10;;;7.23;;
7057;SDS011;3570;43.080;25.628;2022-10-31T05:57:43;14.53;;;7.77;;
7057;SDS011;3570;43.080;25.628;2022-10-31T06:00:27;17.70;;;8.47;;
7057;SDS011;3570;43.080;25.628;2022-10-31T06:03:11;12.13;;;7.60;;
7057;SDS011;3570;43.080;25.628;2022-10-31T06:05:55;14.60;;;7.77;;
7057;SDS011;3570;43.080;25.628;2022-10-31T06:08:40;14.33;;;7.30;;
7057;SDS011;3570;43.080;25.628;2022-10-31T06:11:23;19.20;;;10.13;;
7057;SDS011;3570;43.080;25.628;2022-10-31T06:14:07;21.47;;;9.53;;
7057;SDS011;3570;43.080;25.628;2022-10-31T06:16:51;15.63;;;7.60;;
7057;SDS011;3570;43.080;25.628;2022-10-31T06:19:35;15.67;;;6.93;;
7057;SDS011;3570;43.080;25.628;2022-10-31T06:22:19;14.50;;;7.20;;
7057;SDS011;3570;43.080;25.628;2022-10-31T06:25:03;16.87;;;7.33;;
7057;SDS011;3570;43.080;25.628;2022-10-31T06:27:48;15.43;;;7.87;;
7057;SDS011;3570;43.080;25.628;2022-10-31T06:30:32;12.30;;;6.40;;
7057;SDS011;3570;43.080;25.628;2022-10-31T06:33:16;10.47;;;5.20;;
7057;SDS011;3570;43.080;25.628;2022-10-31T06:36:00;10.00;;;6.50;;
7057;SDS011;3570;43.080;25.628;2022-10-31T06:38:45;12.10;;;6.53;;
7057;SDS011;3570;43.080;25.628;2022-10-31T06:41:29;11.70;;;6.17;;
7057;SDS011;3570;43.080;25.628;2022-10-31T06:44:13;13.17;;;6.27;;
7057;SDS011;3570;43.080;25.628;2022-10-31T06:46:56;13.73;;;6.43;;
7057;SDS011;3570;43.080;25.628;2022-10-31T06:49:40;12.57;;;6.30;;
7057;SDS011;3570;43.080;25.628;2022-10-31T06:52:24;20.33;;;5.70;;
7057;SDS011;3570;43.080;25.628;2022-10-31T06:55:08;14.70;;;6.10;;
7057;SDS011;3570;43.080;25.628;2022-10-31T06:57:53;15.73;;;5.80;;
7057;SDS011;3570;43.080;25.628;2022-10-31T07:00:37;8.67;;;5.83;;
7057;SDS011;3570;43.080;25.628;2022-10-31T07:03:21;14.60;;;6.47;;
7057;SDS011;3570;43.080;25.628;2022-10-31T07:06:05;13.20;;;6.33;;
7057;SDS011;3570;43.080;25.628;2022-10-31T07:08:49;15.13;;;5.73;;
7057;SDS011;3570;43.080;25.628;2022-10-31T07:11:34;8.73;;;5.77;;
7057;SDS011;3570;43.080;25.628;2022-10-31T07:14:17;9.17;;;6.23;;
7057;SDS011;3570;43.080;25.628;2022-10-31T07:17:01;13.30;;;6.47;;
7057;SDS011;3570;43.080;25.628;2022-10-31T07:19:45;14.43;;;7.40;;
7057;SDS011;3570;43.080;25.628;2022-10-31T07:22:36;17.73;;;7.80;;
7057;SDS011;3570;43.080;25.628;2022-10-31T07:25:21;15.43;;;7.10;;
7057;SDS011;3570;43.080;25.628;2022-10-31T07:28:05;13.53;;;7.53;;
7057;SDS011;3570;43.080;25.628;2022-10-31T07:30:50;12.43;;;6.17;;
7057;SDS011;3570;43.080;25.628;2022-10-31T07:33:38;19.97;;;8.00;;
7057;SDS011;3570;43.080;25.628;2022-10-31T07:36:22;15.03;;;8.90;;
7057;SDS011;3570;43.080;25.628;2022-10-31T07:39:06;13.03;;;8.13;;
7057;SDS011;3570;43.080;25.628;2022-10-31T07:41:50;14.40;;;6.67;;
7057;SDS011;3570;43.080;25.628;2022-10-31T07:44:34;14.97;;;7.90;;
7057;SDS011;3570;43.080;25.628;2022-10-31T07:47:18;14.93;;;7.80;;
7057;SDS011;3570;43.080;25.628;2022-10-31T07:50:02;16.93;;;8.40;;
7057;SDS011;3570;43.080;25.628;2022-10-31T07:52:46;12.60;;;8.00;;
7057;SDS011;3570;43.080;25.628;2022-10-31T07:55:30;13.73;;;6.70;;
7057;SDS011;3570;43.080;25.628;2022-10-31T07:58:15;14.47;;;7.03;;
7057;SDS011;3570;43.080;25.628;2022-10-31T08:01:00;14.97;;;7.70;;
7057;SDS011;3570;43.080;25.628;2022-10-31T08:03:44;11.03;;;6.63;;
7057;SDS011;3570;43.080;25.628;2022-10-31T08:06:28;14.93;;;7.27;;
7057;SDS011;3570;43.080;25.628;2022-10-31T08:09:12;13.57;;;7.37;;
7057;SDS011;3570;43.080;25.628;2022-10-31T08:11:56;14.20;;;7.33;;
7057;SDS011;3570;43.080;25.628;2022-10-31T08:14:40;14.27;;;7.67;;
7057;SDS011;3570;43.080;25.628;2022-10-31T08:17:24;12.27;;;5.93;;
7057;SDS011;3570;43.080;25.628;2022-10-31T08:20:08;10.23;;;6.30;;
7057;SDS011;3570;43.080;25.628;2022-10-31T08:22:56;19.93;;;7.43;;
7057;SDS011;3570;43.080;25.628;2022-10-31T08:25:42;10.30;;;6.47;;
7057;SDS011;3570;43.080;25.628;2022-10-31T08:28:27;10.07;;;6.40;;
7057;SDS011;3570;43.080;25.628;2022-10-31T08:31:11;12.17;;;6.57;;
7057;SDS011;3570;43.080;25.628;2022-10-31T08:33:55;11.87;;;6.37;;
7057;SDS011;3570;43.080;25.628;2022-10-31T08:36:39;12.30;;;6.23;;
7057;SDS011;3570;43.080;25.628;2022-10-31T08:39:24;8.43;;;5.07;;
7057;SDS011;3570;43.080;25.628;2022-10-31T08:42:07;7.67;;;5.03;;
7057;SDS011;3570;43.080;25.628;2022-10-31T08:44:51;11.47;;;5.90;;
7057;SDS011;3570;43.080;25.628;2022-10-31T08:47:35;9.17;;;5.83;;
7057;SDS011;3570;43.080;25.628;2022-10-31T08:50:20;7.57;;;6.10;;
7057;SDS011;3570;43.080;25.628;2022-10-31T08:53:05;9.00;;;5.40;;
7057;SDS011;3570;43.080;25.628;2022-10-31T08:55:53;9.00;;;5.23;;
7057;SDS011;3570;43.080;25.628;2022-10-31T08:58:38;11.17;;;5.83;;
7057;SDS011;3570;43.080;25.628;2022-10-31T09:01:23;5.33;;;3.90;;
7057;SDS011;3570;43.080;25.628;2022-10-31T09:04:07;8.27;;;4.80;;
7057;SDS011;3570;43.080;25.628;2022-10-31T09:06:51;7.73;;;5.50;;
7057;SDS011;3570;43.080;25.628;2022-10-31T09:09:35;10.73;;;5.40;;
7057;SDS011;3570;43.080;25.628;2022-10-31T09:12:18;14.40;;;6.30;;
7057;SDS011;3570;43.080;25.628;2022-10-31T09:15:03;8.60;;;5.43;;
7057;SDS011;3570;43.080;25.628;2022-10-31T09:17:49;12.43;;;5.17;;
7057;SDS011;3570;43.080;25.628;2022-10-31T09:20:35;10.97;;;5.40;;
7057;SDS011;3570;43.080;25.628;2022-10-31T09:23:20;11.10;;;5.40;;
7057;SDS011;3570;43.080;25.628;2022-10-31T09:26:05;13.60;;;5.33;;
7057;SDS011;3570;43.080;25.628;2022-10-31T09:28:50;10.23;;;5.53;;
7057;SDS011;3570;43.080;25.628;2022-10-31T09:31:34;11.13;;;5.30;;
7057;SDS011;3570;43.080;25.628;2022-10-31T09:34:18;10.70;;;4.60;;
7057;SDS011;3570;43.080;25.628;2022-10-31T09:37:02;8.10;;;4.80;;
7057;SDS011;3570;43.080;25.628;2022-10-31T09:39:45;14.63;;;5.77;;
7057;SDS011;3570;43.080;25.628;2022-10-31T09:45:31;8.67;;;4.40;;
7057;SDS011;3570;43.080;25.628;2022-10-31T09:49:10;8.82;;;4.38;;
7057;SDS011;3570;43.080;25.628;2022-10-31T09:51:31;6.55;;;4.38;;
7057;SDS011;3570;43.080;25.628;2022-10-31T09:54:19;6.57;;;4.60;;
7057;SDS011;3570;43.080;25.628;2022-10-31T09:57:27;7.70;;;4.80;;
7057;SDS011;3570;43.080;25.628;2022-10-31T10:00:16;10.55;;;4.75;;
7057;SDS011;3570;43.080;25.628;2022-10-31T10:06:23;6.80;;;4.65;;
7057;SDS011;3570;43.080;25.628;2022-10-31T10:09:11;6.10;;;4.90;;
7057;SDS011;3570;43.080;25.628;2022-10-31T10:17:59;7.38;;;4.55;;
7057;SDS011;3570;43.080;25.628;2022-10-31T10:21:51;8.80;;;3.95;;
7057;SDS011;3570;43.080;25.628;2022-10-31T10:33:02;6.78;;;4.03;;
7057;SDS011;3570;43.080;25.628;2022-10-31T10:35:53;7.10;;;3.97;;
7057;SDS011;3570;43.080;25.628;2022-10-31T10:38:57;7.20;;;4.55;;
7057;SDS011;3570;43.080;25.628;2022-10-31T10:41:48;5.40;;;3.97;;
7057;SDS011;3570;43.080;25.628;2022-10-31T10:44:53;13.60;;;5.03;;
7057;SDS011;3570;43.080;25.628;2022-10-31T10:47:57;8.63;;;5.07;;
7057;SDS011;3570;43.080;25.628;2022-10-31T10:51:06;5.78;;;4.10;;
7057;SDS011;3570;43.080;25.628;2022-10-31T11:00:22;7.43;;;4.18;;
7057;SDS011;3570;43.080;25.628;2022-10-31T11:03:09;5.88;;;3.85;;
7057;SDS011;3570;43.080;25.628;2022-10-31T11:05:55;4.97;;;3.67;;
7057;SDS011;3570;43.080;25.628;2022-10-31T11:08:41;6.90;;;3.80;;
7057;SDS011;3570;43.080;25.628;2022-10-31T11:11:26;5.82;;;3.72;;
7057;SDS011;3570;43.080;25.628;2022-10-31T11:14:14;6.25;;;4.43;;
7057;SDS011;3570;43.080;25.628;2022-10-31T11:17:07;6.55;;;4.38;;
7057;SDS011;3570;43.080;25.628;2022-10-31T11:20:00;9.00;;;3.95;;
7057;SDS011;3570;43.080;25.628;2022-10-31T11:22:45;6.25;;;3.97;;
7057;SDS011;3570;43.080;25.628;2022-10-31T11:25:31;5.78;;;4.30;;
7057;SDS011;3570;43.080;25.628;2022-10-31T11:28:15;8.98;;;4.25;;
7057;SDS011;3570;43.080;25.628;2022-10-31T11:31:00;6.32;;;4.55;;
7057;SDS011;3570;43.080;25.628;2022-10-31T11:33:49;8.88;;;4.85;;
7057;SDS011;3570;43.080;25.628;2022-10-31T11:36:42;7.43;;;3.70;;
7057;SDS011;3570;43.080;25.628;2022-10-31T11:39:28;7.63;;;4.18;;
7057;SDS011;3570;43.080;25.628;2022-10-31T11:42:12;5.40;;;4.10;;
7057;SDS011;3570;43.080;25.628;2022-10-31T11:44:57;6.75;;;4.03;;
7057;SDS011;3570;43.080;25.628;2022-10-31T11:47:51;5.32;;;3.78;;
7057;SDS011;3570;43.080;25.628;2022-10-31T11:50:39;8.27;;;4.63;;
7057;SDS011;3570;43.080;25.628;2022-10-31T11:53:29;10.48;;;4.40;;
7057;SDS011;3570;43.080;25.628;2022-10-31T11:56:16;5.32;;;4.30;;
7057;SDS011;3570;43.080;25.628;2022-10-31T11:59:04;9.10;;;4.90;;
7057;SDS011;3570;43.080;25.628;2022-10-31T12:01:51;12.65;;;4.50;;
7057;SDS011;3570;43.080;25.628;2022-10-31T12:04:38;5.85;;;4.75;;
7057;SDS011;3570;43.080;25.628;2022-10-31T12:07:27;10.40;;;5.13;;
7057;SDS011;3570;43.080;25.628;2022-10-31T12:10:12;7.55;;;4.50;;
7057;SDS011;3570;43.080;25.628;2022-10-31T12:16:21;7.30;;;4.72;;
7057;SDS011;3570;43.080;25.628;2022-10-31T12:22:04;6.53;;;4.72;;
7057;SDS011;3570;43.080;25.628;2022-10-31T12:34:18;4.93;;;3.55;;
7057;SDS011;3570;43.080;25.628;2022-10-31T12:40:19;5.38;;;3.85;;
7057;SDS011;3570;43.080;25.628;2022-10-31T12:46:15;7.80;;;3.95;;
7057;SDS011;3570;43.080;25.628;2022-10-31T12:58:34;5.72;;;3.67;;
7057;SDS011;3570;43.080;25.628;2022-10-31T13:02:10;7.43;;;3.30;;
7057;SDS011;3570;43.080;25.628;2022-10-31T13:10:37;9.23;;;3.85;;
7057;SDS011;3570;43.080;25.628;2022-10-31T13:13:25;6.82;;;3.78;;
7057;SDS011;3570;43.080;25.628;2022-10-31T13:16:16;10.53;;;5.27;;
7057;SDS011;3570;43.080;25.628;2022-10-31T13:22:10;8.53;;;4.90;;
7057;SDS011;3570;43.080;25.628;2022-10-31T13:25:13;6.07;;;3.90;;
7057;SDS011;3570;43.080;25.628;2022-10-31T13:28:05;8.97;;;4.63;;
7057;SDS011;3570;43.080;25.628;2022-10-31T13:30:59;5.87;;;4.50;;
7057;SDS011;3570;43.080;25.628;2022-10-31T13:33:45;9.97;;;5.23;;
7057;SDS011;3570;43.080;25.628;2022-10-31T13:36:34;8.90;;;3.63;;
7057;SDS011;3570;43.080;25.628;2022-10-31T13:45:25;9.93;;;4.80;;
7057;SDS011;3570;43.080;25.628;2022-10-31T13:50:59;6.37;;;4.63;;
7057;SDS011;3570;43.080;25.628;2022-10-31T13:56:35;13.98;;;4.85;;
7057;SDS011;3570;43.080;25.628;2022-10-31T13:59:21;6.28;;;4.47;;
7057;SDS011;3570;43.080;25.628;2022-10-31T14:02:13;8.35;;;4.85;;
7057;SDS011;3570;43.080;25.628;2022-10-31T14:05:00;6.70;;;4.20;;
7057;SDS011;3570;43.080;25.628;2022-10-31T14:08:05;6.55;;;4.55;;
7057;SDS011;3570;43.080;25.628;2022-10-31T14:10:58;8.18;;;4.18;;
7057;SDS011;3570;43.080;25.628;2022-10-31T14:13:43;8.57;;;5.00;;
7057;SDS011;3570;43.080;25.628;2022-10-31T14:16:30;11.55;;;5.18;;
7057;SDS011;3570;43.080;25.628;2022-10-31T14:19:16;7.38;;;5.20;;
7057;SDS011;3570;43.080;25.628;2022-10-31T14:22:03;7.45;;;5.00;;
7057;SDS011;3570;43.080;25.628;2022-10-31T14:24:47;9.48;;;4.68;;
7057;SDS011;3570;43.080;25.628;2022-10-31T14:27:33;9.57;;;5.32;;
7057;SDS011;3570;43.080;25.628;2022-10-31T14:30:21;7.00;;;5.30;;
7057;SDS011;3570;43.080;25.628;2022-10-31T14:33:18;11.93;;;5.43;;
7057;SDS011;3570;43.080;25.628;2022-10-31T14:36:06;8.87;;;4.97;;
7057;SDS011;3570;43.080;25.628;2022-10-31T14:42:13;8.80;;;5.17;;
7057;SDS011;3570;43.080;25.628;2022-10-31T14:45:26;13.07;;;5.57;;
7057;SDS011;3570;43.080;25.628;2022-10-31T14:51:21;10.67;;;6.73;;
7057;SDS011;3570;43.080;25.628;2022-10-31T14:54:07;11.53;;;6.70;;
7057;SDS011;3570;43.080;25.628;2022-10-31T14:57:08;23.27;;;7.20;;
7057;SDS011;3570;43.080;25.628;2022-10-31T15:00:15;14.73;;;7.27;;
7057;SDS011;3570;43.080;25.628;2022-10-31T15:05:52;12.80;;;6.33;;
7057;SDS011;3570;43.080;25.628;2022-10-31T15:08:40;26.20;;;7.90;;
7057;SDS011;3570;43.080;25.628;2022-10-31T15:11:28;10.60;;;6.37;;
7057;SDS011;3570;43.080;25.628;2022-10-31T15:14:29;14.83;;;6.83;;
7057;SDS011;3570;43.080;25.628;2022-10-31T15:17:14;10.57;;;6.67;;
7057;SDS011;3570;43.080;25.628;2022-10-31T15:19:59;13.27;;;6.37;;
7057;SDS011;3570;43.080;25.628;2022-10-31T15:22:43;9.73;;;6.27;;
7057;SDS011;3570;43.080;25.628;2022-10-31T15:25:28;10.80;;;6.27;;
7057;SDS011;3570;43.080;25.628;2022-10-31T15:28:22;16.40;;;7.13;;
7057;SDS011;3570;43.080;25.628;2022-10-31T15:31:17;11.97;;;6.60;;
7057;SDS011;3570;43.080;25.628;2022-10-31T15:34:05;11.57;;;6.50;;
7057;SDS011;3570;43.080;25.628;2022-10-31T15:36:59;12.57;;;6.50;;
7057;SDS011;3570;43.080;25.628;2022-10-31T15:39:45;10.63;;;6.93;;
7057;SDS011;3570;43.080;25.628;2022-10-31T15:42:32;20.93;;;7.90;;
7057;SDS011;3570;43.080;25.628;2022-10-31T15:45:23;11.77;;;7.57;;
7057;SDS011;3570;43.080;25.628;2022-10-31T15:48:20;13.23;;;8.37;;
7057;SDS011;3570;43.080;25.628;2022-10-31T15:51:07;11.90;;;8.03;;
7057;SDS011;3570;43.080;25.628;2022-10-31T15:53:51;14.73;;;7.27;;
7057;SDS011;3570;43.080;25.628;2022-10-31T15:56:37;18.33;;;8.17;;
7057;SDS011;3570;43.080;25.628;2022-10-31T15:59:22;14.70;;;8.03;;
7057;SDS011;3570;43.080;25.628;2022-10-31T16:02:11;16.33;;;8.20;;
7057;SDS011;3570;43.080;25.628;2022-10-31T16:04:58;13.23;;;7.27;;
7057;SDS011;3570;43.080;25.628;2022-10-31T16:07:50;17.90;;;7.97;;
7057;SDS011;3570;43.080;25.628;2022-10-31T16:10:35;15.83;;;8.37;;
7057;SDS011;3570;43.080;25.628;2022-10-31T16:13:20;14.33;;;7.23;;
7057;SDS011;3570;43.080;25.628;2022-10-31T16:16:28;15.10;;;8.93;;
7057;SDS011;3570;43.080;25.628;2022-10-31T16:19:19;22.27;;;10.10;;
7057;SDS011;3570;43.080;25.628;2022-10-31T16:22:08;18.70;;;8.17;;
7057;SDS011;3570;43.080;25.628;2022-10-31T16:24:59;16.63;;;9.70;;
7057;SDS011;3570;43.080;25.628;2022-10-31T16:27:48;15.20;;;8.20;;
7057;SDS011;3570;43.080;25.628;2022-10-31T16:30:38;13.30;;;7.47;;
7057;SDS011;3570;43.080;25.628;2022-10-31T16:33:29;17.30;;;7.33;;
7057;SDS011;3570;43.080;25.628;2022-10-31T16:36:30;16.33;;;8.83;;
7057;SDS011;3570;43.080;25.628;2022-10-31T16:39:16;18.00;;;8.20;;
7057;SDS011;3570;43.080;25.628;2022-10-31T16:42:01;17.13;;;8.70;;
7057;SDS011;3570;43.080;25.628;2022-10-31T16:44:45;17.67;;;10.13;;
7057;SDS011;3570;43.080;25.628;2022-10-31T16:47:31;18.73;;;10.77;;
7057;SDS011;3570;43.080;25.628;2022-10-31T16:53:02;20.40;;;11.90;;
7057;SDS011;3570;43.080;25.628;2022-10-31T16:58:35;26.40;;;11.00;;
7057;SDS011;3570;43.080;25.628;2022-10-31T17:01:19;22.60;;;13.20;;
7057;SDS011;3570;43.080;25.628;2022-10-31T17:04:03;25.97;;;12.93;;
7057;SDS011;3570;43.080;25.628;2022-10-31T17:06:47;24.93;;;14.10;;
7057;SDS011;3570;43.080;25.628;2022-10-31T17:09:31;22.43;;;12.13;;
7057;SDS011;3570;43.080;25.628;2022-10-31T17:12:17;23.23;;;13.37;;
7057;SDS011;3570;43.080;25.628;2022-10-31T17:15:08;28.67;;;13.53;;
7057;SDS011;3570;43.080;25.628;2022-10-31T17:18:05;20.63;;;11.00;;
7057;SDS011;3570;43.080;25.628;2022-10-31T17:20:49;24.10;;;10.03;;
7057;SDS011;3570;43.080;25.628;2022-10-31T17:23:38;21.93;;;11.23;;
7057;SDS011;3570;43.080;25.628;2022-10-31T17:26:22;18.73;;;11.93;;
7057;SDS011;3570;43.080;25.628;2022-10-31T17:29:06;22.27;;;12.67;;
7057;SDS011;3570;43.080;25.628;2022-10-31T17:31:50;23.27;;;12.47;;
7057;SDS011;3570;43.080;25.628;2022-10-31T17:34:35;24.33;;;13.23;;
7057;SDS011;3570;43.080;25.628;2022-10-31T17:37:19;22.47;;;12.57;;
7057;SDS011;3570;43.080;25.628;2022-10-31T17:40:03;23.03;;;11.60;;
7057;SDS011;3570;43.080;25.628;2022-10-31T17:42:53;24.77;;;11.90;;
7057;SDS011;3570;43.080;25.628;2022-10-31T17:45:40;22.47;;;12.00;;
7057;SDS011;3570;43.080;25.628;2022-10-31T17:48:25;30.97;;;12.77;;
7057;SDS011;3570;43.080;25.628;2022-10-31T17:51:09;20.53;;;12.20;;
7057;SDS011;3570;43.080;25.628;2022-10-31T17:53:54;17.00;;;10.20;;
7057;SDS011;3570;43.080;25.628;2022-10-31T17:56:38;29.90;;;12.37;;
7057;SDS011;3570;43.080;25.628;2022-10-31T17:59:22;25.40;;;11.47;;
7057;SDS011;3570;43.080;25.628;2022-10-31T18:02:08;22.17;;;12.53;;
7057;SDS011;3570;43.080;25.628;2022-10-31T18:04:53;20.57;;;12.33;;
7057;SDS011;3570;43.080;25.628;2022-10-31T18:07:37;26.63;;;13.27;;
7057;SDS011;3570;43.080;25.628;2022-10-31T18:10:21;28.63;;;13.73;;
7057;SDS011;3570;43.080;25.628;2022-10-31T18:13:05;28.13;;;13.77;;
7057;SDS011;3570;43.080;25.628;2022-10-31T18:15:52;33.87;;;12.60;;
7057;SDS011;3570;43.080;25.628;2022-10-31T18:18:37;24.93;;;12.30;;
7057;SDS011;3570;43.080;25.628;2022-10-31T18:21:21;20.77;;;10.87;;
7057;SDS011;3570;43.080;25.628;2022-10-31T18:24:05;24.53;;;11.33;;
7057;SDS011;3570;43.080;25.628;2022-10-31T18:26:49;17.70;;;11.00;;
7057;SDS011;3570;43.080;25.628;2022-10-31T18:29:33;25.00;;;10.70;;
7057;SDS011;3570;43.080;25.628;2022-10-31T18:32:18;26.33;;;12.60;;
7057;SDS011;3570;43.080;25.628;2022-10-31T18:35:02;21.03;;;11.87;;
7057;SDS011;3570;43.080;25.628;2022-10-31T18:37:46;26.13;;;13.97;;
7057;SDS011;3570;43.080;25.628;2022-10-31T18:40:31;22.47;;;14.20;;
7057;SDS011;3570;43.080;25.628;2022-10-31T18:43:17;20.70;;;12.47;;
7057;SDS011;3570;43.080;25.628;2022-10-31T18:46:01;24.40;;;13.20;;